QTR2394 EHAM-OTHH
Flight info
| Callsign | QTR2394 |
|---|---|
| Flight time | N/A |
| Altitude | 35000 |
| Route | EDUPO Z739 MISGO DCT DOJOH DCT DODEN DCT NEGIX DCT DINKU M867 XERUM DCT BAVAX DCT RADIZ DCT VRANA DCT DIMIS UL604 SALUN N705 MMA/N0486F370 P751 DASUM Y234 FYM M872 BDB Y214 RAPMA/N0519F290 Y214 ASPUS Y432 LADBO T142 LAEEB |
| Aircraft | B77W/H-SDE1E2E3FGHIJ2J3J4J5M1RWXY/LB1D1 |
Departure
| Time | 2026-05-04 20:03 |
|---|---|
| Airport | Amsterdam Airport Schiphol (EHAM) |
Arrival
| Time | N/A |
|---|---|
| Airport | Hamad International Airport (OTHH) |
| Time | Latitude | Longitude | Altitude | Speed | Heading |
|---|---|---|---|---|---|
| 2026-05-04 19:21 | 52.31285 | 4.75583 | 4 ft | 0 kts | 86° |
| 2026-05-04 19:44 | 52.31283 | 4.75545 | 4 ft | 4 kts | 82° |
| 2026-05-04 19:44 | 52.31278 | 4.75504 | 6 ft | 4 kts | 69° |
| 2026-05-04 19:44 | 52.31267 | 4.75470 | 6 ft | 4 kts | 41° |
| 2026-05-04 19:44 | 52.31259 | 4.75459 | 7 ft | 4 kts | 12° |
| 2026-05-04 19:45 | 52.31258 | 4.75456 | 6 ft | 4 kts | 356° |
| 2026-05-04 19:45 | 52.31276 | 4.75455 | 5 ft | 4 kts | 356° |
| 2026-05-04 19:45 | 52.31303 | 4.75452 | 4 ft | 4 kts | 356° |
| 2026-05-04 19:45 | 52.31330 | 4.75450 | 4 ft | 4 kts | 356° |
| 2026-05-04 19:46 | 52.31350 | 4.75448 | 4 ft | 0 kts | 356° |
| 2026-05-04 19:48 | 52.31405 | 4.75443 | 4 ft | 10 kts | 356° |
| 2026-05-04 19:48 | 52.31475 | 4.75430 | 4 ft | 10 kts | 340° |
| 2026-05-04 19:48 | 52.31504 | 4.75330 | 4 ft | 10 kts | 276° |
| 2026-05-04 19:48 | 52.31504 | 4.75212 | 4 ft | 10 kts | 268° |
| 2026-05-04 19:49 | 52.31501 | 4.75093 | 4 ft | 10 kts | 265° |
| 2026-05-04 19:49 | 52.31496 | 4.74974 | 4 ft | 10 kts | 266° |
| 2026-05-04 19:49 | 52.31491 | 4.74855 | 4 ft | 10 kts | 266° |
| 2026-05-04 19:49 | 52.31486 | 4.74735 | 4 ft | 11 kts | 267° |
| 2026-05-04 19:50 | 52.31481 | 4.74549 | 4 ft | 22 kts | 268° |
| 2026-05-04 19:50 | 52.31491 | 4.74334 | 4 ft | 16 kts | 306° |
| 2026-05-04 19:50 | 52.31581 | 4.74298 | 4 ft | 13 kts | 4° |
| 2026-05-04 19:50 | 52.31673 | 4.74310 | 4 ft | 13 kts | 3° |
| 2026-05-04 19:51 | 52.31769 | 4.74319 | 4 ft | 15 kts | 3° |
| 2026-05-04 19:51 | 52.31880 | 4.74329 | 4 ft | 18 kts | 3° |
| 2026-05-04 19:51 | 52.31997 | 4.74323 | 4 ft | 15 kts | 335° |
| 2026-05-04 19:51 | 52.32033 | 4.74170 | 4 ft | 15 kts | 275° |
| 2026-05-04 19:52 | 52.32039 | 4.74002 | 3 ft | 15 kts | 272° |
| 2026-05-04 19:52 | 52.32045 | 4.73801 | 4 ft | 21 kts | 272° |
| 2026-05-04 19:52 | 52.32054 | 4.73542 | 4 ft | 23 kts | 275° |
| 2026-05-04 19:52 | 52.32119 | 4.73312 | 4 ft | 23 kts | 317° |
| 2026-05-04 19:53 | 52.32239 | 4.73145 | 4 ft | 23 kts | 319° |
| 2026-05-04 19:53 | 52.32360 | 4.72974 | 4 ft | 23 kts | 319° |
| 2026-05-04 19:53 | 52.32482 | 4.72804 | 4 ft | 23 kts | 319° |
| 2026-05-04 19:53 | 52.32607 | 4.72627 | 4 ft | 24 kts | 319° |
| 2026-05-04 19:54 | 52.32726 | 4.72436 | 4 ft | 24 kts | 311° |
| 2026-05-04 19:54 | 52.32819 | 4.72260 | 4 ft | 15 kts | 311° |
| 2026-05-04 19:54 | 52.32834 | 4.72091 | 4 ft | 16 kts | 269° |
| 2026-05-04 19:54 | 52.32859 | 4.71924 | 4 ft | 16 kts | 304° |
| 2026-05-04 19:55 | 52.32880 | 4.71888 | 4 ft | 0 kts | 313° |
| 2026-05-04 19:56 | 52.32893 | 4.71866 | 4 ft | 9 kts | 313° |
| 2026-05-04 19:56 | 52.32942 | 4.71774 | 4 ft | 11 kts | 310° |
| 2026-05-04 19:56 | 52.32993 | 4.71681 | 4 ft | 11 kts | 312° |
| 2026-05-04 19:57 | 52.33050 | 4.71578 | 4 ft | 14 kts | 312° |
| 2026-05-04 19:57 | 52.33078 | 4.71443 | 4 ft | 12 kts | 249° |
| 2026-05-04 19:57 | 52.33022 | 4.71343 | 4 ft | 12 kts | 223° |
| 2026-05-04 19:57 | 52.32961 | 4.71251 | 4 ft | 12 kts | 222° |
| 2026-05-04 19:58 | 52.32915 | 4.71186 | 4 ft | 0 kts | 220° |
| 2026-05-04 19:58 | 52.32914 | 4.71184 | 4 ft | 0 kts | 220° |
| 2026-05-04 19:58 | 52.32911 | 4.71181 | 4 ft | 0 kts | 220° |
| 2026-05-04 19:59 | 52.32908 | 4.71176 | 4 ft | 2 kts | 220° |
| 2026-05-04 19:59 | 52.32894 | 4.71155 | 4 ft | 3 kts | 225° |
| 2026-05-04 20:00 | 52.32879 | 4.71127 | 4 ft | 4 kts | 233° |
| 2026-05-04 20:00 | 52.32871 | 4.71098 | 4 ft | 0 kts | 247° |
| 2026-05-04 20:00 | 52.32870 | 4.71095 | 4 ft | 2 kts | 248° |
| 2026-05-04 20:01 | 52.32863 | 4.71029 | 3 ft | 9 kts | 268° |
| 2026-05-04 20:01 | 52.32875 | 4.70926 | 3 ft | 10 kts | 301° |
| 2026-05-04 20:01 | 52.32938 | 4.70899 | 2 ft | 10 kts | 2° |
| 2026-05-04 20:01 | 52.32947 | 4.70900 | 2 ft | 0 kts | 4° |
| 2026-05-04 20:02 | 52.32987 | 4.70904 | 2 ft | 30 kts | 4° |
| 2026-05-04 20:02 | 52.33469 | 4.70948 | 3 ft | 106 kts | 3° |
| 2026-05-04 20:03 | 52.34421 | 4.71036 | 39 ft | 159 kts | 4° |
| 2026-05-04 20:03 | 52.35522 | 4.71125 | 653 ft | 159 kts | 3° |
| 2026-05-04 20:03 | 52.36634 | 4.71230 | 1326 ft | 163 kts | 5° |
| 2026-05-04 20:03 | 52.37797 | 4.71349 | 1844 ft | 174 kts | 6° |
| 2026-05-04 20:04 | 52.39093 | 4.71479 | 2073 ft | 199 kts | 5° |
| 2026-05-04 20:04 | 52.40540 | 4.71761 | 2302 ft | 220 kts | 20° |
| 2026-05-04 20:04 | 52.41719 | 4.73397 | 2745 ft | 234 kts | 61° |
| 2026-05-04 20:04 | 52.42043 | 4.76065 | 3229 ft | 249 kts | 97° |
| 2026-05-04 20:05 | 52.41522 | 4.78827 | 3807 ft | 260 kts | 112° |
| 2026-05-04 20:05 | 52.40790 | 4.81586 | 4517 ft | 267 kts | 113° |
| 2026-05-04 20:05 | 52.40033 | 4.84398 | 5312 ft | 271 kts | 113° |
| 2026-05-04 20:05 | 52.39271 | 4.87232 | 6161 ft | 273 kts | 114° |
| 2026-05-04 20:06 | 52.38507 | 4.90097 | 6926 ft | 277 kts | 114° |
| 2026-05-04 20:06 | 52.37735 | 4.93007 | 7666 ft | 281 kts | 114° |
| 2026-05-04 20:06 | 52.36955 | 4.95968 | 8411 ft | 285 kts | 114° |
| 2026-05-04 20:06 | 52.36169 | 4.98961 | 9187 ft | 288 kts | 114° |
| 2026-05-04 20:07 | 52.35371 | 5.01999 | 9923 ft | 292 kts | 114° |
| 2026-05-04 20:07 | 52.34561 | 5.05082 | 10515 ft | 301 kts | 114° |
| 2026-05-04 20:07 | 52.33623 | 5.08290 | 10712 ft | 325 kts | 121° |
| 2026-05-04 20:07 | 52.32323 | 5.11482 | 10907 ft | 350 kts | 128° |
| 2026-05-04 20:08 | 52.30679 | 5.14577 | 11227 ft | 370 kts | 134° |
| 2026-05-04 20:08 | 52.28895 | 5.17674 | 11954 ft | 378 kts | 134° |
| 2026-05-04 20:08 | 52.27090 | 5.20857 | 12810 ft | 386 kts | 133° |
| 2026-05-04 20:08 | 52.25264 | 5.24137 | 13643 ft | 393 kts | 132° |
| 2026-05-04 20:09 | 52.23521 | 5.27606 | 14511 ft | 398 kts | 126° |
| 2026-05-04 20:09 | 52.21946 | 5.31263 | 15367 ft | 402 kts | 125° |
| 2026-05-04 20:09 | 52.20312 | 5.35078 | 16190 ft | 408 kts | 125° |
| 2026-05-04 20:09 | 52.18674 | 5.38885 | 17018 ft | 413 kts | 125° |
| 2026-05-04 20:10 | 52.17005 | 5.42739 | 17773 ft | 420 kts | 126° |
| 2026-05-04 20:10 | 52.15308 | 5.46639 | 18552 ft | 424 kts | 126° |
| 2026-05-04 20:10 | 52.13620 | 5.50510 | 19358 ft | 425 kts | 126° |
| 2026-05-04 20:10 | 52.11880 | 5.54488 | 20181 ft | 427 kts | 126° |
| 2026-05-04 20:11 | 52.10177 | 5.58377 | 20964 ft | 429 kts | 126° |
| 2026-05-04 20:11 | 52.08443 | 5.62332 | 21742 ft | 431 kts | 127° |
| 2026-05-04 20:11 | 52.06694 | 5.66309 | 22445 ft | 434 kts | 127° |
| 2026-05-04 20:11 | 52.04817 | 5.70180 | 23174 ft | 437 kts | 132° |
| 2026-05-04 20:12 | 52.02809 | 5.73899 | 23814 ft | 439 kts | 133° |
| 2026-05-04 20:12 | 52.00783 | 5.77645 | 24387 ft | 443 kts | 133° |
| 2026-05-04 20:12 | 51.98753 | 5.81428 | 24923 ft | 447 kts | 133° |
| 2026-05-04 20:12 | 51.96710 | 5.85250 | 25446 ft | 451 kts | 133° |
| 2026-05-04 20:13 | 51.94644 | 5.89104 | 25946 ft | 454 kts | 133° |
| 2026-05-04 20:13 | 51.92560 | 5.92981 | 26435 ft | 458 kts | 134° |
| 2026-05-04 20:13 | 51.90454 | 5.96893 | 26909 ft | 462 kts | 134° |
| 2026-05-04 20:13 | 51.88334 | 6.00830 | 27400 ft | 465 kts | 134° |
| 2026-05-04 20:14 | 51.86197 | 6.04789 | 27871 ft | 469 kts | 134° |
| 2026-05-04 20:14 | 51.84042 | 6.08764 | 28316 ft | 472 kts | 135° |
| 2026-05-04 20:14 | 51.81867 | 6.12746 | 28747 ft | 475 kts | 135° |
| 2026-05-04 20:14 | 51.79670 | 6.16757 | 29152 ft | 478 kts | 135° |
| 2026-05-04 20:15 | 51.77459 | 6.20790 | 29542 ft | 481 kts | 136° |
| 2026-05-04 20:15 | 51.75240 | 6.24840 | 29925 ft | 483 kts | 136° |
| 2026-05-04 20:15 | 51.73015 | 6.28901 | 30314 ft | 483 kts | 136° |
| 2026-05-04 20:15 | 51.70793 | 6.32959 | 30773 ft | 481 kts | 136° |
| 2026-05-04 20:16 | 51.68583 | 6.36989 | 31267 ft | 479 kts | 136° |
| 2026-05-04 20:16 | 51.66384 | 6.40993 | 31723 ft | 477 kts | 137° |
| 2026-05-04 20:16 | 51.64183 | 6.44987 | 32124 ft | 476 kts | 137° |
| 2026-05-04 20:16 | 51.61982 | 6.48974 | 32522 ft | 476 kts | 137° |
| 2026-05-04 20:17 | 51.59782 | 6.52951 | 32891 ft | 475 kts | 137° |
| 2026-05-04 20:17 | 51.57588 | 6.56915 | 33272 ft | 475 kts | 137° |
| 2026-05-04 20:17 | 51.55392 | 6.60878 | 33683 ft | 474 kts | 137° |
| 2026-05-04 20:17 | 51.53202 | 6.64824 | 34051 ft | 473 kts | 137° |
| 2026-05-04 20:18 | 51.51015 | 6.68760 | 34323 ft | 473 kts | 137° |
| 2026-05-04 20:18 | 51.48820 | 6.72702 | 34574 ft | 474 kts | 137° |
| 2026-05-04 20:18 | 51.46620 | 6.76648 | 34833 ft | 475 kts | 137° |
| 2026-05-04 20:19 | 51.42184 | 6.84588 | 34934 ft | 479 kts | 137° |
| 2026-05-04 20:19 | 51.37641 | 6.92163 | 34968 ft | 471 kts | 141° |
| 2026-05-04 20:20 | 51.07363 | 7.38677 | 35005 ft | 463 kts | 141° |
| 2026-05-04 20:20 | 50.69867 | 7.95033 | 35065 ft | 480 kts | 142° |
| 2026-05-04 20:21 | 50.38637 | 8.51573 | 34910 ft | 467 kts | 134° |
| 2026-05-04 20:21 | 49.94962 | 9.24213 | 34985 ft | 482 kts | 137° |
| 2026-05-04 20:22 | 49.69746 | 9.65113 | 34913 ft | 472 kts | 138° |
| 2026-05-04 20:22 | 49.36202 | 10.18516 | 35028 ft | 473 kts | 138° |
| 2026-05-04 20:23 | 49.00453 | 10.59319 | 34973 ft | 477 kts | 152° |
| 2026-05-04 20:23 | 48.82460 | 10.75898 | 34868 ft | 474 kts | 146° |
| 2026-05-04 20:23 | 48.79272 | 10.79938 | 34906 ft | 472 kts | 140° |
| 2026-05-04 20:24 | 48.45871 | 11.35506 | 34976 ft | 472 kts | 135° |
| 2026-05-04 20:24 | 48.27913 | 11.64972 | 35032 ft | 485 kts | 135° |
| 2026-05-04 20:24 | 48.10167 | 11.89781 | 34875 ft | 480 kts | 140° |
| 2026-05-04 20:25 | 47.71141 | 12.42496 | 34905 ft | 470 kts | 141° |
| 2026-05-04 20:25 | 47.52296 | 12.68290 | 35018 ft | 482 kts | 138° |
| 2026-05-04 20:25 | 47.32767 | 12.96123 | 35028 ft | 487 kts | 139° |
| 2026-05-04 20:26 | 47.05146 | 13.34522 | 34938 ft | 476 kts | 139° |
| 2026-05-04 20:26 | 46.91763 | 13.52947 | 35063 ft | 477 kts | 139° |
| 2026-05-04 20:26 | 46.76971 | 13.73138 | 35161 ft | 486 kts | 139° |
| 2026-05-04 20:27 | 46.64620 | 13.89895 | 35134 ft | 490 kts | 139° |
| 2026-05-04 20:27 | 46.48106 | 14.12140 | 35030 ft | 475 kts | 139° |
| 2026-05-04 20:27 | 46.28639 | 14.38086 | 35082 ft | 479 kts | 139° |
| 2026-05-04 20:28 | 46.11611 | 14.60576 | 35177 ft | 491 kts | 140° |
| 2026-05-04 20:28 | 46.03257 | 14.71539 | 35075 ft | 497 kts | 140° |
| 2026-05-04 20:28 | 45.72539 | 15.11455 | 34982 ft | 487 kts | 140° |
| 2026-05-04 20:29 | 45.36631 | 15.57318 | 35137 ft | 490 kts | 140° |
| 2026-05-04 20:29 | 45.12801 | 15.87327 | 35039 ft | 502 kts | 140° |
| 2026-05-04 20:30 | 44.71585 | 16.38399 | 35020 ft | 490 kts | 140° |
| 2026-05-04 20:30 | 44.32609 | 16.85780 | 35228 ft | 503 kts | 140° |
| 2026-05-04 20:31 | 44.25224 | 16.94663 | 35093 ft | 508 kts | 140° |
| 2026-05-04 20:31 | 44.03783 | 17.20275 | 35044 ft | 505 kts | 140° |
| 2026-05-04 20:31 | 43.63886 | 17.64247 | 35164 ft | 496 kts | 148° |
| 2026-05-04 20:32 | 43.37817 | 17.86990 | 35128 ft | 512 kts | 148° |
| 2026-05-04 20:32 | 42.89757 | 18.28758 | 35063 ft | 504 kts | 148° |
| 2026-05-04 20:33 | 42.42303 | 18.69236 | 35181 ft | 511 kts | 148° |
| 2026-05-04 20:33 | 41.93246 | 19.10319 | 35114 ft | 520 kts | 148° |
| 2026-05-04 20:34 | 41.52702 | 19.43707 | 35082 ft | 509 kts | 148° |
| 2026-05-04 20:34 | 41.11220 | 19.77358 | 35257 ft | 521 kts | 148° |
| 2026-05-04 20:35 | 41.00080 | 19.86306 | 35139 ft | 528 kts | 148° |
| 2026-05-04 20:35 | 40.74937 | 20.06379 | 35125 ft | 525 kts | 148° |
| 2026-05-04 20:35 | 40.25493 | 20.45332 | 35119 ft | 514 kts | 149° |
| 2026-05-04 20:36 | 39.77154 | 20.77753 | 35273 ft | 530 kts | 155° |
| 2026-05-04 20:36 | 39.51568 | 20.94540 | 35172 ft | 530 kts | 151° |
| 2026-05-04 20:36 | 39.25668 | 21.12349 | 35081 ft | 522 kts | 153° |
| 2026-05-04 20:37 | 38.88530 | 21.37308 | 35248 ft | 522 kts | 153° |
| 2026-05-04 20:37 | 38.67849 | 21.51088 | 35177 ft | 533 kts | 153° |
| 2026-05-04 20:38 | 38.17623 | 21.84152 | 35152 ft | 534 kts | 153° |
| 2026-05-04 20:38 | 37.82095 | 22.07236 | 35140 ft | 524 kts | 154° |
| 2026-05-04 20:39 | 37.64007 | 22.18885 | 35297 ft | 529 kts | 154° |
| 2026-05-04 20:39 | 37.60027 | 22.21439 | 35241 ft | 533 kts | 154° |
| 2026-05-04 20:39 | 37.12353 | 22.51745 | 35167 ft | 541 kts | 155° |
| 2026-05-04 20:40 | 36.85743 | 22.68446 | 35052 ft | 534 kts | 155° |
| 2026-05-04 20:40 | 36.76917 | 22.73952 | 35124 ft | 530 kts | 155° |
| 2026-05-04 20:40 | 36.26410 | 23.05217 | 35243 ft | 540 kts | 155° |
| 2026-05-04 20:41 | 36.11485 | 23.14370 | 35123 ft | 545 kts | 155° |
| 2026-05-04 20:41 | 35.57033 | 23.47517 | 35147 ft | 546 kts | 156° |
| 2026-05-04 20:42 | 35.03176 | 23.80490 | 35173 ft | 545 kts | 154° |
| 2026-05-04 20:42 | 34.49733 | 24.14165 | 35153 ft | 544 kts | 155° |
| 2026-05-04 20:43 | 34.00633 | 24.44933 | 35109 ft | 545 kts | 149° |
| 2026-05-04 20:43 | 33.81633 | 24.64674 | 35218 ft | 544 kts | 139° |
| 2026-05-04 20:43 | 33.59015 | 24.88931 | 35184 ft | 545 kts | 140° |
| 2026-05-04 20:44 | 33.13618 | 25.36881 | 35166 ft | 543 kts | 141° |
| 2026-05-04 20:44 | 32.68207 | 25.84185 | 35173 ft | 541 kts | 141° |
| 2026-05-04 20:45 | 32.22878 | 26.30742 | 35157 ft | 538 kts | 142° |
| 2026-05-04 20:45 | 31.77658 | 26.76556 | 35159 ft | 535 kts | 142° |
| 2026-05-04 20:46 | 31.34481 | 27.19815 | 35172 ft | 535 kts | 140° |
| 2026-05-04 20:46 | 31.21360 | 27.40453 | 35212 ft | 539 kts | 125° |
| 2026-05-04 20:46 | 31.04926 | 27.68590 | 35173 ft | 540 kts | 127° |
| 2026-05-04 20:47 | 30.87587 | 27.97419 | 35661 ft | 559 kts | 128° |
| 2026-05-04 20:47 | 30.85354 | 28.01133 | 36029 ft | 556 kts | 128° |
| 2026-05-04 20:47 | 30.83143 | 28.04802 | 36531 ft | 550 kts | 128° |
| 2026-05-04 20:47 | 30.80957 | 28.08425 | 37039 ft | 546 kts | 128° |
| 2026-05-04 20:48 | 30.78638 | 28.12264 | 37186 ft | 549 kts | 129° |
| 2026-05-04 20:48 | 30.73269 | 28.21133 | 37184 ft | 550 kts | 129° |
| 2026-05-04 20:48 | 30.38051 | 28.78901 | 37132 ft | 543 kts | 130° |
| 2026-05-04 20:49 | 30.08296 | 29.27109 | 37148 ft | 539 kts | 130° |
| 2026-05-04 20:49 | 29.73410 | 29.84699 | 37139 ft | 550 kts | 130° |
| 2026-05-04 20:50 | 29.55877 | 30.13282 | 37033 ft | 542 kts | 131° |
| 2026-05-04 20:50 | 29.52136 | 30.19350 | 37066 ft | 539 kts | 131° |
| 2026-05-04 20:50 | 29.30055 | 30.51043 | 37127 ft | 531 kts | 142° |
| 2026-05-04 20:51 | 29.10295 | 30.74377 | 37011 ft | 530 kts | 141° |
| 2026-05-04 20:51 | 28.88394 | 31.00221 | 37135 ft | 519 kts | 142° |
| 2026-05-04 20:52 | 28.54149 | 31.41743 | 37223 ft | 535 kts | 139° |
| 2026-05-04 20:52 | 28.37735 | 31.62364 | 37020 ft | 519 kts | 140° |
| 2026-05-04 20:53 | 28.27506 | 31.75125 | 37133 ft | 515 kts | 140° |
| 2026-05-04 20:53 | 28.08129 | 31.99215 | 37216 ft | 521 kts | 140° |
| 2026-05-04 20:53 | 27.98753 | 32.14173 | 37159 ft | 546 kts | 125° |
| 2026-05-04 20:53 | 27.91391 | 32.29922 | 37031 ft | 540 kts | 124° |
| 2026-05-04 20:54 | 27.78234 | 32.57041 | 37120 ft | 529 kts | 126° |
| 2026-05-04 20:54 | 27.55001 | 33.04548 | 37173 ft | 542 kts | 126° |
| 2026-05-04 20:55 | 27.47748 | 33.19279 | 37047 ft | 547 kts | 126° |
| 2026-05-04 20:55 | 27.33390 | 33.48303 | 36969 ft | 543 kts | 126° |
| 2026-05-04 20:55 | 27.17318 | 33.80828 | 37018 ft | 537 kts | 122° |
| 2026-05-04 20:56 | 27.08113 | 34.06910 | 36978 ft | 542 kts | 119° |
| 2026-05-04 20:56 | 26.85832 | 34.68722 | 36985 ft | 542 kts | 119° |
| 2026-05-04 20:57 | 26.62991 | 35.31246 | 36969 ft | 543 kts | 120° |
| 2026-05-04 20:57 | 26.39889 | 35.92118 | 36944 ft | 541 kts | 121° |
| 2026-05-04 20:58 | 26.17233 | 36.50299 | 36930 ft | 536 kts | 125° |
| 2026-05-04 20:58 | 25.88856 | 37.07636 | 36933 ft | 532 kts | 127° |
| 2026-05-04 20:59 | 25.60573 | 37.64307 | 36928 ft | 533 kts | 127° |
| 2026-05-04 20:59 | 25.31691 | 38.21573 | 36907 ft | 532 kts | 127° |
| 2026-05-04 21:00 | 25.06835 | 38.70287 | 36979 ft | 532 kts | 128° |
| 2026-05-04 21:00 | 25.00667 | 38.82308 | 36971 ft | 535 kts | 128° |
| 2026-05-04 21:01 | 24.74107 | 39.33471 | 36933 ft | 532 kts | 128° |
| 2026-05-04 21:01 | 24.53651 | 39.79170 | 36959 ft | 558 kts | 102° |
| 2026-05-04 21:02 | 24.49563 | 40.23872 | 36963 ft | 558 kts | 101° |
| 2026-05-04 21:02 | 24.42852 | 40.90657 | 36984 ft | 556 kts | 101° |
| 2026-05-04 21:03 | 24.35861 | 41.57017 | 36988 ft | 554 kts | 101° |
| 2026-05-04 21:03 | 24.28292 | 42.00918 | 36969 ft | 543 kts | 112° |
| 2026-05-04 21:04 | 24.11332 | 42.64432 | 36986 ft | 542 kts | 111° |
| 2026-05-04 21:04 | 23.94541 | 43.26534 | 36941 ft | 541 kts | 111° |
| 2026-05-04 21:05 | 23.78053 | 43.86706 | 36942 ft | 541 kts | 108° |
| 2026-05-04 21:05 | 23.75509 | 44.13523 | 37024 ft | 546 kts | 97° |
| 2026-05-04 21:05 | 23.73050 | 44.46578 | 36983 ft | 545 kts | 98° |
| 2026-05-04 21:06 | 23.67900 | 45.11357 | 36917 ft | 541 kts | 98° |
| 2026-05-04 21:06 | 23.62623 | 45.74560 | 36885 ft | 537 kts | 98° |
| 2026-05-04 21:07 | 23.57022 | 46.38794 | 36911 ft | 534 kts | 98° |
| 2026-05-04 21:07 | 23.51198 | 47.01840 | 36859 ft | 529 kts | 98° |
| 2026-05-04 21:08 | 23.45164 | 47.64371 | 36842 ft | 526 kts | 98° |
| 2026-05-04 21:08 | 23.38846 | 48.27772 | 36836 ft | 527 kts | 98° |
| 2026-05-04 21:09 | 23.36694 | 48.72307 | 36849 ft | 529 kts | 95° |
| 2026-05-04 21:09 | 23.33910 | 49.35225 | 36814 ft | 528 kts | 95° |
| 2026-05-04 21:10 | 23.30855 | 49.99041 | 36795 ft | 528 kts | 95° |
| 2026-05-04 21:10 | 23.27544 | 50.62742 | 36818 ft | 528 kts | 95° |
| 2026-05-04 21:11 | 23.26381 | 50.86924 | 36767 ft | 529 kts | 84° |
| 2026-05-04 21:11 | 23.27758 | 50.91813 | 36823 ft | 528 kts | 60° |
| 2026-05-04 21:11 | 23.37731 | 51.00297 | 36820 ft | 510 kts | 11° |
| 2026-05-04 21:11 | 23.56299 | 51.04531 | 36878 ft | 511 kts | 7° |
| 2026-05-04 21:12 | 23.63841 | 51.06328 | 36847 ft | 514 kts | 8° |
| 2026-05-04 21:12 | 23.70831 | 51.08086 | 36803 ft | 516 kts | 8° |
| 2026-05-04 21:13 | 23.77831 | 51.09838 | 36800 ft | 515 kts | 8° |
| 2026-05-04 21:13 | 23.81250 | 51.10687 | 36617 ft | 506 kts | 8° |
| 2026-05-04 21:13 | 23.84701 | 51.11542 | 36151 ft | 500 kts | 8° |
| 2026-05-04 21:14 | 23.88059 | 51.12369 | 35358 ft | 502 kts | 8° |
| 2026-05-04 21:14 | 23.91473 | 51.13208 | 34521 ft | 505 kts | 8° |
| 2026-05-04 21:14 | 23.94911 | 51.14054 | 33686 ft | 507 kts | 8° |
| 2026-05-04 21:14 | 23.98355 | 51.14903 | 32705 ft | 509 kts | 8° |
| 2026-05-04 21:15 | 24.01818 | 51.15759 | 31654 ft | 512 kts | 9° |
| 2026-05-04 21:15 | 24.05307 | 51.16622 | 30568 ft | 516 kts | 9° |
| 2026-05-04 21:15 | 24.08821 | 51.17493 | 29561 ft | 518 kts | 9° |
| 2026-05-04 21:15 | 24.12316 | 51.18361 | 28818 ft | 511 kts | 9° |
| 2026-05-04 21:16 | 24.15750 | 51.19217 | 28237 ft | 502 kts | 9° |
| 2026-05-04 21:16 | 24.19130 | 51.20057 | 27650 ft | 494 kts | 9° |
| 2026-05-04 21:16 | 24.22461 | 51.20883 | 27006 ft | 488 kts | 10° |
| 2026-05-04 21:16 | 24.25756 | 51.21700 | 26343 ft | 483 kts | 10° |
| 2026-05-04 21:17 | 24.29012 | 51.22536 | 25689 ft | 478 kts | 13° |
| 2026-05-04 21:17 | 24.32130 | 51.23799 | 25043 ft | 477 kts | 24° |
| 2026-05-04 21:17 | 24.35014 | 51.25577 | 24463 ft | 474 kts | 32° |
| 2026-05-04 21:17 | 24.37622 | 51.27758 | 23907 ft | 470 kts | 41° |
| 2026-05-04 21:18 | 24.39970 | 51.30224 | 23364 ft | 465 kts | 43° |
| 2026-05-04 21:18 | 24.42267 | 51.32695 | 22698 ft | 460 kts | 43° |
| 2026-05-04 21:18 | 24.44555 | 51.35132 | 22018 ft | 457 kts | 43° |
| 2026-05-04 21:18 | 24.46846 | 51.37527 | 21368 ft | 453 kts | 43° |
| 2026-05-04 21:19 | 24.49127 | 51.39891 | 20746 ft | 449 kts | 43° |
| 2026-05-04 21:19 | 24.51441 | 51.42168 | 20135 ft | 445 kts | 38° |
| 2026-05-04 21:19 | 24.53934 | 51.44156 | 19539 ft | 441 kts | 32° |
| 2026-05-04 21:19 | 24.56560 | 51.45858 | 18955 ft | 437 kts | 26° |
| 2026-05-04 21:20 | 24.59283 | 51.47301 | 18379 ft | 433 kts | 24° |
| 2026-05-04 21:20 | 24.61928 | 51.48684 | 17365 ft | 412 kts | 24° |
| 2026-05-04 21:20 | 24.64566 | 51.49748 | 15965 ft | 399 kts | 8° |
| 2026-05-04 21:20 | 24.66380 | 51.49885 | 15085 ft | 391 kts | 355° |